createdAt,value
2017-11-28T00:01:59.881Z,97769.29
2017-11-28T00:04:27.376Z,97775.67
2017-11-28T00:06:54.878Z,97757.52
2017-11-28T00:09:22.384Z,97766.92
2017-11-28T00:11:49.901Z,97760.86
2017-11-28T00:14:17.395Z,97756.60
2017-11-28T00:16:44.879Z,97757.03
2017-11-28T00:19:12.382Z,97748.09
2017-11-28T00:21:39.900Z,97744.55
2017-11-28T00:24:07.413Z,97743.78
2017-11-28T00:26:34.921Z,97737.73
2017-11-28T00:29:02.873Z,97752.34
2017-11-28T00:31:30.500Z,97748.95
2017-11-28T00:33:58.011Z,97732.34
2017-11-28T00:36:25.496Z,97731.09
2017-11-28T00:38:53.009Z,97737.41
2017-11-28T00:41:20.527Z,97726.55
2017-11-28T00:43:48.108Z,97713.81
2017-11-28T00:46:15.602Z,97717.19
2017-11-28T00:48:43.097Z,97717.39
2017-11-28T00:51:10.618Z,97719.03
2017-11-28T00:53:38.141Z,97712.44
2017-11-28T00:56:05.664Z,97713.55
2017-11-28T00:58:33.182Z,97701.27
2017-11-28T01:01:00.679Z,97708.77
2017-11-28T01:03:28.184Z,97699.72
2017-11-28T01:05:55.686Z,97698.74
2017-11-28T01:08:23.191Z,97695.93
2017-11-28T01:10:50.703Z,97691.11
2017-11-28T01:13:18.187Z,97693.75
2017-11-28T01:15:45.689Z,97687.48
2017-11-28T01:18:13.735Z,97689.63
2017-11-28T01:20:41.231Z,97689.52
2017-11-28T01:23:08.712Z,97681.06
2017-11-28T01:25:36.234Z,97675.83
2017-11-28T01:28:03.758Z,97675.08
2017-11-28T01:30:31.259Z,97664.27
2017-11-28T01:32:58.800Z,97668.45
2017-11-28T01:35:26.387Z,97665.61
2017-11-28T01:37:53.987Z,97662.50
2017-11-28T01:40:21.630Z,97653.40
2017-11-28T01:42:49.210Z,97651.36
2017-11-28T01:45:16.702Z,97649.08
2017-11-28T01:47:44.198Z,97635.38
2017-11-28T01:50:11.694Z,97633.27
2017-11-28T01:52:39.211Z,97626.27
2017-11-28T01:55:06.794Z,97610.41
2017-11-28T01:57:34.286Z,97605.33
2017-11-28T02:00:02.614Z,97611.92
2017-11-28T02:02:30.134Z,97591.92
2017-11-28T02:04:57.647Z,97593.13
2017-11-28T02:07:25.195Z,97582.23
2017-11-28T02:09:52.688Z,97577.23
2017-11-28T02:12:20.172Z,97569.30
2017-11-28T02:14:47.664Z,97565.06
2017-11-28T02:17:15.171Z,97567.00
2017-11-28T02:19:42.659Z,97567.52
2017-11-28T02:22:10.311Z,97567.94
2017-11-28T02:24:37.860Z,97560.63
2017-11-28T02:27:06.228Z,97558.28
2017-11-28T02:29:33.863Z,97543.67
2017-11-28T02:32:01.419Z,97542.34
2017-11-28T02:34:28.975Z,97537.19
2017-11-28T02:36:56.552Z,97532.42
2017-11-28T02:39:24.040Z,97517.63
2017-11-28T02:41:51.548Z,97523.41
2017-11-28T02:44:19.034Z,97516.42
2017-11-28T02:46:46.524Z,97514.02
2017-11-28T02:49:15.700Z,97512.91
2017-11-28T02:51:44.783Z,97505.64
2017-11-28T02:54:12.274Z,97509.33
2017-11-28T02:56:39.779Z,97510.01
2017-11-28T02:59:08.755Z,97506.39
2017-11-28T03:01:40.081Z,97503.70
2017-11-28T03:04:14.323Z,97495.84
2017-11-28T03:06:47.497Z,97493.37
2017-11-28T03:09:28.788Z,97488.63
2017-11-28T03:11:57.546Z,97488.91
2017-11-28T03:14:38.652Z,97488.09
2017-11-28T03:17:10.509Z,97486.64
2017-11-28T03:19:48.445Z,97484.16
2017-11-28T03:22:32.019Z,97478.50
2017-11-28T03:25:05.192Z,97487.07
2017-11-28T03:27:37.233Z,97488.22
2017-11-28T03:30:09.788Z,97488.30
2017-11-28T03:32:40.498Z,97490.97
2017-11-28T03:35:13.216Z,97479.73
2017-11-28T03:37:45.208Z,97473.81
2017-11-28T03:40:18.161Z,97480.09
2017-11-28T03:42:50.505Z,97468.13
2017-11-28T03:48:35.845Z,97461.75
2017-11-28T03:51:09.057Z,97465.67
2017-11-28T03:53:39.913Z,97460.03
2017-11-28T03:56:07.525Z,97466.94
2017-11-28T03:58:36.017Z,97462.87
2017-11-28T04:01:04.839Z,97456.80
2017-11-28T04:03:37.121Z,97447.55
2017-11-28T04:06:04.883Z,97446.45
2017-11-28T04:08:32.767Z,97435.55
2017-11-28T04:11:02.936Z,97437.58
2017-11-28T04:13:31.283Z,97435.58
2017-11-28T04:16:04.361Z,97427.47
2017-11-28T04:18:36.065Z,97430.84
2017-11-28T04:21:05.969Z,97416.87
2017-11-28T04:23:37.568Z,97420.44
2017-11-28T04:26:09.904Z,97426.02
2017-11-28T04:28:37.745Z,97427.27
2017-11-28T04:31:07.163Z,97422.20
2017-11-28T04:33:34.649Z,97428.21
2017-11-28T04:36:04.468Z,97420.91
2017-11-28T04:38:34.388Z,97422.84
2017-11-28T04:41:05.644Z,97421.18
2017-11-28T04:43:35.316Z,97418.07
2017-11-28T04:46:05.348Z,97408.78
2017-11-28T04:48:38.728Z,97412.52
2017-11-28T04:51:09.969Z,97409.13
2017-11-28T04:53:41.343Z,97408.22
2017-11-28T04:56:13.551Z,97410.72
2017-11-28T04:58:45.563Z,97406.69
2017-11-28T05:01:17.470Z,97399.26
2017-11-28T05:03:49.418Z,97407.72
2017-11-28T05:06:19.080Z,97402.11
2017-11-28T05:08:46.876Z,97405.86
2017-11-28T05:11:14.588Z,97388.03
2017-11-28T05:13:42.151Z,97393.19
2017-11-28T05:16:10.415Z,97392.49
2017-11-28T05:18:37.941Z,97389.89
2017-11-28T05:21:07.596Z,97393.84
2017-11-28T05:23:35.509Z,97388.66
2017-11-28T05:26:04.011Z,97382.19
2017-11-28T05:28:32.415Z,97379.58
2017-11-28T05:31:02.253Z,97387.21
2017-11-28T05:33:30.954Z,97377.69
2017-11-28T05:35:59.005Z,97379.39
2017-11-28T05:38:26.652Z,97381.38
2017-11-28T05:40:57.102Z,97376.33
2017-11-28T05:43:27.221Z,97379.50
2017-11-28T05:45:56.784Z,97372.84
2017-11-28T05:48:24.412Z,97370.06
2017-11-28T05:50:52.409Z,97372.63
2017-11-28T05:53:37.489Z,97377.22
2017-11-28T05:56:05.271Z,97377.28
2017-11-28T05:58:34.308Z,97383.24
2017-11-28T06:01:03.777Z,97380.71
2017-11-28T06:03:31.414Z,97384.44
2017-11-28T06:06:07.831Z,97386.66
2017-11-28T06:08:35.370Z,97376.55
2017-11-28T06:11:02.880Z,97380.86
2017-11-28T06:14:26.139Z,97374.09
2017-11-28T06:17:47.323Z,97375.50
2017-11-28T06:20:14.831Z,97370.61
2017-11-28T06:23:53.171Z,97375.80
2017-11-28T06:26:20.663Z,97375.39
2017-11-28T06:28:57.008Z,97370.58
2017-11-28T06:31:36.246Z,97370.26
2017-11-28T06:34:03.901Z,97368.62
2017-11-28T06:36:31.384Z,97370.86
2017-11-28T06:42:23.054Z,97374.09
2017-11-28T06:48:01.799Z,97375.19
2017-11-28T06:50:30.017Z,97371.17
2017-11-28T06:52:57.675Z,97372.66
2017-11-28T06:55:25.388Z,97366.13
2017-11-28T06:57:52.975Z,97375.86
2017-11-28T07:00:20.477Z,97370.34
2017-11-28T07:02:50.203Z,97380.29
2017-11-28T07:05:21.354Z,97375.48
2017-11-28T07:07:52.194Z,97384.69
2017-11-28T07:10:20.615Z,97384.33
2017-11-28T07:12:48.665Z,97379.69
2017-11-28T07:15:18.414Z,97381.58
2017-11-28T07:17:46.499Z,97381.08
2017-11-28T07:20:13.983Z,97379.91
2017-11-28T07:23:20.207Z,97381.25
2017-11-28T07:25:48.713Z,97378.27
2017-11-28T07:28:18.555Z,97381.91
2017-11-28T07:30:46.046Z,97378.70
2017-11-28T07:33:14.981Z,97380.68
2017-11-28T07:35:42.492Z,97377.14
2017-11-28T07:38:10.605Z,97382.73
2017-11-28T07:40:38.097Z,97378.87
2017-11-28T07:43:44.798Z,97386.26
2017-11-28T07:46:14.315Z,97385.72
2017-11-28T07:48:41.819Z,97384.66
2017-11-28T07:51:09.336Z,97384.33
2017-11-28T07:53:36.843Z,97386.29
2017-11-28T07:59:23.262Z,97387.04
2017-11-28T08:01:53.808Z,97383.12
2017-11-28T08:04:23.375Z,97395.92
2017-11-28T08:06:54.020Z,97381.41
2017-11-28T08:09:27.169Z,97391.06
2017-11-28T08:12:00.616Z,97385.41
2017-11-28T08:14:29.531Z,97396.55
2017-11-28T08:17:01.433Z,97389.89
2017-11-28T08:19:31.067Z,97389.94
2017-11-28T08:22:03.792Z,97391.34
2017-11-28T08:24:36.813Z,97391.69
2017-11-28T08:27:08.143Z,97397.67
2017-11-28T08:29:37.494Z,97386.99
2017-11-28T08:32:10.467Z,97387.50
2017-11-28T08:34:44.078Z,97393.53
2017-11-28T08:37:15.857Z,97395.91
2017-11-28T08:39:49.573Z,97390.56
2017-11-28T08:42:19.093Z,97391.12
2017-11-28T08:44:46.761Z,97385.27
2017-11-28T08:47:19.180Z,97389.30
2017-11-28T08:49:46.779Z,97388.17
2017-11-28T08:52:17.485Z,97386.19
2017-11-28T08:54:50.167Z,97390.05
2017-11-28T08:57:20.681Z,97397.38
2017-11-28T08:59:50.528Z,97398.69
2017-11-28T09:02:18.927Z,97399.12
2017-11-28T09:04:50.497Z,97393.63
2017-11-28T09:07:18.128Z,97390.27
2017-11-28T09:09:45.619Z,97396.14
2017-11-28T09:12:13.231Z,97398.56
2017-11-28T09:14:40.740Z,97395.33
2017-11-28T09:17:08.259Z,97401.97
2017-11-28T09:19:35.829Z,97392.84
2017-11-28T09:22:03.472Z,97399.02
2017-11-28T09:24:30.967Z,97404.01
2017-11-28T09:26:58.463Z,97402.33
2017-11-28T09:29:26.092Z,97401.06
2017-11-28T09:31:53.585Z,97402.59
2017-11-28T09:34:21.193Z,97398.02
2017-11-28T09:36:48.712Z,97398.53
2017-11-28T09:39:16.211Z,97399.02
2017-11-28T09:41:43.725Z,97393.67
2017-11-28T09:44:11.213Z,97400.63
2017-11-28T09:46:38.734Z,97383.95
2017-11-28T09:49:06.267Z,97395.39
2017-11-28T09:51:33.786Z,97386.05
2017-11-28T09:54:01.290Z,97387.84
2017-11-28T09:56:28.799Z,97391.31
2017-11-28T09:58:56.335Z,97387.88
2017-11-28T10:01:23.849Z,97387.25
2017-11-28T10:03:51.336Z,97392.27
2017-11-28T10:06:18.861Z,97388.89
2017-11-28T10:08:46.392Z,97396.01
2017-11-28T10:11:13.881Z,97394.77
2017-11-28T10:13:41.393Z,97386.27
2017-11-28T10:16:08.883Z,97388.89
2017-11-28T10:18:36.372Z,97386.70
2017-11-28T10:21:03.872Z,97379.98
2017-11-28T10:23:31.411Z,97380.22
2017-11-28T10:25:58.901Z,97383.88
2017-11-28T10:28:26.418Z,97369.64
2017-11-28T10:30:53.911Z,97373.88
2017-11-28T10:33:21.399Z,97367.06
2017-11-28T10:35:48.898Z,97368.95
2017-11-28T10:38:16.401Z,97369.76
2017-11-28T10:40:43.900Z,97364.63
2017-11-28T10:43:11.378Z,97361.60
2017-11-28T10:45:38.905Z,97373.34
2017-11-28T10:48:06.410Z,97363.18
2017-11-28T10:50:33.918Z,97355.99
2017-11-28T10:53:01.402Z,97358.48
2017-11-28T10:55:28.900Z,97361.33
2017-11-28T10:57:56.398Z,97351.30
2017-11-28T11:00:23.908Z,97356.44
2017-11-28T11:02:51.425Z,97351.11
2017-11-28T11:05:18.931Z,97334.77
2017-11-28T11:07:46.418Z,97335.75
2017-11-28T11:10:13.911Z,97336.98
2017-11-28T11:12:41.427Z,97345.12
2017-11-28T11:15:08.917Z,97337.84
2017-11-28T11:17:36.409Z,97344.96
2017-11-28T11:20:03.899Z,97328.17
2017-11-28T11:22:31.387Z,97329.58
2017-11-28T11:24:58.875Z,97333.25
2017-11-28T11:27:26.383Z,97329.68
2017-11-28T11:29:53.907Z,97333.28
2017-11-28T11:32:21.395Z,97328.19
2017-11-28T11:34:48.905Z,97333.08
2017-11-28T11:37:16.398Z,97328.84
2017-11-28T11:39:43.893Z,97323.78
2017-11-28T11:42:11.398Z,97328.25
2017-11-28T11:44:38.877Z,97321.47
2017-11-28T11:47:06.371Z,97327.78
2017-11-28T11:49:33.865Z,97330.12
2017-11-28T11:52:01.366Z,97320.46
2017-11-28T11:54:28.906Z,97322.45
2017-11-28T11:56:56.395Z,97320.45
2017-11-28T11:59:23.899Z,97322.28
2017-11-28T12:01:51.415Z,97314.56
2017-11-28T12:04:18.905Z,97317.73
2017-11-28T12:06:46.414Z,97312.88
2017-11-28T12:09:14.012Z,97310.23
2017-11-28T12:11:41.524Z,97317.08
2017-11-28T12:14:09.022Z,97305.81
2017-11-28T12:16:36.536Z,97305.48
2017-11-28T12:19:04.027Z,97300.06
2017-11-28T12:21:31.526Z,97301.05
2017-11-28T12:23:59.068Z,97293.65
2017-11-28T12:26:26.557Z,97297.19
2017-11-28T12:28:54.078Z,97297.64
2017-11-28T12:31:21.583Z,97287.91
2017-11-28T12:33:49.106Z,97293.94
2017-11-28T12:36:16.606Z,97290.14
2017-11-28T12:38:44.100Z,97292.84
2017-11-28T12:41:11.603Z,97287.28
2017-11-28T12:43:39.103Z,97276.91
2017-11-28T12:46:06.586Z,97281.08
2017-11-28T12:48:34.093Z,97280.59
2017-11-28T12:51:01.591Z,97271.55
2017-11-28T12:53:29.090Z,97273.79
2017-11-28T12:55:56.600Z,97274.33
2017-11-28T12:58:24.087Z,97264.66
2017-11-28T13:00:51.751Z,97262.58
2017-11-28T13:03:19.234Z,97255.45
2017-11-28T13:05:46.731Z,97262.47
2017-11-28T13:08:14.229Z,97256.59
2017-11-28T13:10:41.766Z,97254.72
2017-11-28T13:13:09.297Z,97252.94
2017-11-28T13:15:36.807Z,97257.06
2017-11-28T13:18:04.294Z,97252.00
2017-11-28T13:20:31.800Z,97248.89
2017-11-28T13:22:59.314Z,97247.94
2017-11-28T13:25:26.835Z,97243.34
2017-11-28T13:27:54.316Z,97238.03
2017-11-28T13:30:21.812Z,97248.67
2017-11-28T13:32:49.311Z,97248.20
2017-11-28T13:35:16.809Z,97239.75
2017-11-28T13:37:44.308Z,97234.69
2017-11-28T13:40:11.851Z,97243.77
2017-11-28T13:42:39.356Z,97247.94
2017-11-28T13:45:06.842Z,97237.82
2017-11-28T13:47:34.341Z,97243.95
2017-11-28T13:50:01.846Z,97239.73
2017-11-28T13:52:29.343Z,97237.53
2017-11-28T13:54:56.852Z,97237.84
2017-11-28T13:57:24.359Z,97242.73
2017-11-28T13:59:51.859Z,97242.81
2017-11-28T14:02:19.351Z,97242.19
2017-11-28T14:04:46.981Z,97247.98
2017-11-28T14:07:14.473Z,97235.33
2017-11-28T14:09:41.995Z,97244.18
2017-11-28T14:12:09.602Z,97244.10
2017-11-28T14:14:37.153Z,97245.62
2017-11-28T14:17:04.639Z,97240.75
2017-11-28T14:19:32.954Z,97236.95
2017-11-28T14:25:06.017Z,97230.72
2017-11-28T14:27:34.426Z,97235.09
2017-11-28T14:30:05.003Z,97231.74
2017-11-28T14:32:38.099Z,97227.83
2017-11-28T14:35:11.206Z,97228.95
2017-11-28T14:37:38.706Z,97227.05
2017-11-28T14:40:06.188Z,97218.33
2017-11-28T14:42:38.598Z,97215.59
2017-11-28T14:48:12.338Z,97220.09
2017-11-28T14:53:46.690Z,97217.30
2017-11-28T14:56:14.569Z,97217.08
2017-11-28T14:58:47.624Z,97228.68
2017-11-28T15:01:20.618Z,97220.72
2017-11-28T15:03:53.124Z,97221.23
2017-11-28T15:09:46.443Z,97215.25
2017-11-28T15:12:19.451Z,97213.08
2017-11-28T15:14:52.490Z,97212.41
2017-11-28T15:17:25.757Z,97211.27
2017-11-28T15:19:54.235Z,97209.66
2017-11-28T15:22:30.222Z,97211.48
2017-11-28T15:25:02.753Z,97206.48
2017-11-28T15:27:30.247Z,97208.12
2017-11-28T15:29:57.774Z,97200.84
2017-11-28T15:32:25.286Z,97196.45
2017-11-28T15:34:52.775Z,97203.30
2017-11-28T15:37:20.339Z,97204.25
2017-11-28T15:39:47.908Z,97212.67
2017-11-28T15:42:15.410Z,97213.16
2017-11-28T15:44:42.898Z,97206.13
2017-11-28T15:47:10.413Z,97200.91
2017-11-28T15:49:37.915Z,97201.85
2017-11-28T15:52:05.403Z,97217.56
2017-11-28T15:54:32.930Z,97211.09
2017-11-28T15:57:00.473Z,97218.06
2017-11-28T15:59:27.993Z,97219.27
2017-11-28T16:01:55.504Z,97214.62
2017-11-28T16:04:23.004Z,97213.40
2017-11-28T16:06:50.506Z,97215.44
2017-11-28T16:09:18.010Z,97217.34
2017-11-28T16:11:45.595Z,97211.41
2017-11-28T16:14:13.101Z,97207.59
2017-11-28T16:16:41.355Z,97202.61
2017-11-28T16:19:08.870Z,97209.57
2017-11-28T16:21:36.368Z,97211.01
2017-11-28T16:24:03.880Z,97205.16
2017-11-28T16:26:31.368Z,97206.53
2017-11-28T16:28:58.872Z,97205.70
2017-11-28T16:31:26.375Z,97205.13
2017-11-28T16:33:53.859Z,97199.72
2017-11-28T16:36:21.352Z,97200.36
2017-11-28T16:38:48.862Z,97199.97
2017-11-28T16:41:16.371Z,97198.37
2017-11-28T16:43:43.890Z,97198.17
2017-11-28T16:46:11.382Z,97192.41
2017-11-28T16:48:38.871Z,97195.78
2017-11-28T16:51:06.379Z,97189.13
2017-11-28T16:53:33.871Z,97189.53
2017-11-28T16:56:01.387Z,97180.33
2017-11-28T16:58:28.994Z,97187.45
2017-11-28T17:00:56.534Z,97184.86
2017-11-28T17:03:24.032Z,97188.77
2017-11-28T17:05:51.534Z,97192.03
2017-11-28T17:08:19.022Z,97185.58
2017-11-28T17:10:46.543Z,97186.98
2017-11-28T17:13:14.043Z,97187.84
2017-11-28T17:15:41.536Z,97180.89
2017-11-28T17:18:09.083Z,97176.69
2017-11-28T17:20:36.591Z,97179.53
2017-11-28T17:23:04.145Z,97182.17
2017-11-28T17:25:31.669Z,97170.17
2017-11-28T17:27:59.185Z,97181.17
2017-11-28T17:30:26.724Z,97175.31
2017-11-28T17:32:54.228Z,97171.77
2017-11-28T17:35:21.741Z,97170.52
2017-11-28T17:37:49.270Z,97164.37
2017-11-28T17:40:16.807Z,97169.02
2017-11-28T17:42:44.304Z,97170.55
2017-11-28T17:45:11.835Z,97168.83
2017-11-28T17:47:39.451Z,97164.27
2017-11-28T17:50:07.020Z,97167.13
2017-11-28T17:52:34.553Z,97163.17
2017-11-28T17:55:02.053Z,97168.48
2017-11-28T17:57:29.560Z,97162.56
2017-11-28T17:59:57.109Z,97165.53
2017-11-28T18:02:24.667Z,97159.09
2017-11-28T18:04:52.185Z,97159.00
2017-11-28T18:07:19.700Z,97153.53
2017-11-28T18:09:47.203Z,97147.84
2017-11-28T18:12:14.689Z,97149.23
2017-11-28T18:14:42.224Z,97149.28
2017-11-28T18:17:09.741Z,97143.44
2017-11-28T18:19:37.243Z,97145.59
2017-11-28T18:22:04.757Z,97145.02
2017-11-28T18:24:32.288Z,97140.58
2017-11-28T18:26:59.806Z,97147.54
2017-11-28T18:29:27.333Z,97145.48
2017-11-28T18:31:54.849Z,97147.64
2017-11-28T18:34:22.350Z,97146.19
2017-11-28T18:36:49.937Z,97146.73
2017-11-28T18:39:17.479Z,97147.56
2017-11-28T18:41:44.979Z,97142.30
2017-11-28T18:44:12.496Z,97141.77
2017-11-28T18:46:40.001Z,97143.02
2017-11-28T18:49:07.518Z,97138.13
2017-11-28T18:51:35.043Z,97141.84
2017-11-28T18:54:02.559Z,97155.35
2017-11-28T18:56:30.103Z,97155.67
2017-11-28T18:58:57.627Z,97152.95
2017-11-28T19:01:25.238Z,97152.13
2017-11-28T19:03:52.750Z,97152.91
2017-11-28T19:06:20.257Z,97151.37
2017-11-28T19:08:47.777Z,97145.38
2017-11-28T19:11:15.300Z,97136.94
2017-11-28T19:13:42.804Z,97140.00
2017-11-28T19:16:10.322Z,97146.52
2017-11-28T19:18:37.836Z,97148.97
2017-11-28T19:21:05.349Z,97140.28
2017-11-28T19:23:32.947Z,97140.95
2017-11-28T19:26:00.436Z,97142.81
2017-11-28T19:28:28.049Z,97130.86
2017-11-28T19:30:55.570Z,97134.78
2017-11-28T19:33:23.091Z,97135.94
2017-11-28T19:35:50.596Z,97136.84
2017-11-28T19:38:18.131Z,97136.35
2017-11-28T19:40:45.651Z,97129.55
2017-11-28T19:43:13.160Z,97135.00
2017-11-28T19:45:40.686Z,97130.56
2017-11-28T19:48:08.196Z,97128.94
2017-11-28T19:50:35.732Z,97131.27
2017-11-28T19:53:03.280Z,97134.38
2017-11-28T19:55:30.960Z,97138.70
2017-11-28T19:57:58.474Z,97137.06
2017-11-28T20:00:26.050Z,97138.20
2017-11-28T20:02:53.555Z,97142.39
2017-11-28T20:05:21.168Z,97139.55
2017-11-28T20:07:48.718Z,97146.73
2017-11-28T20:10:16.235Z,97145.21
2017-11-28T20:12:43.735Z,97150.09
2017-11-28T20:15:11.253Z,97138.57
2017-11-28T20:17:38.797Z,97138.20
2017-11-28T20:20:06.303Z,97130.91
2017-11-28T20:22:33.808Z,97136.03
2017-11-28T20:25:01.314Z,97135.25
2017-11-28T20:27:28.827Z,97122.08
2017-11-28T20:29:56.347Z,97127.14
2017-11-28T20:32:23.856Z,97132.72
2017-11-28T20:34:51.345Z,97136.84
2017-11-28T20:37:18.885Z,97135.63
2017-11-28T20:39:46.427Z,97126.77
2017-11-28T20:42:14.220Z,97127.09
2017-11-28T20:44:41.875Z,97126.19
2017-11-28T20:47:09.434Z,97124.03
2017-11-28T20:49:36.953Z,97129.30
2017-11-28T20:52:04.474Z,97148.34
2017-11-28T20:54:31.974Z,97137.91
2017-11-28T20:56:59.506Z,97141.18
2017-11-28T20:59:27.096Z,97140.12
2017-11-28T21:01:54.612Z,97132.70
2017-11-28T21:04:22.141Z,97137.56
2017-11-28T21:06:49.692Z,97146.28
2017-11-28T21:09:17.247Z,97138.78
2017-11-28T21:11:44.777Z,97142.30
2017-11-28T21:14:12.287Z,97140.14
2017-11-28T21:16:39.986Z,97133.23
2017-11-28T21:19:07.481Z,97137.14
2017-11-28T21:21:34.994Z,97135.98
2017-11-28T21:24:02.485Z,97141.03
2017-11-28T21:26:30.037Z,97142.45
2017-11-28T21:28:57.527Z,97136.63
2017-11-28T21:31:25.064Z,97137.06
2017-11-28T21:33:52.621Z,97137.79
2017-11-28T21:36:20.159Z,97145.87
2017-11-28T21:38:47.685Z,97135.94
2017-11-28T21:41:15.215Z,97134.69
2017-11-28T21:43:42.745Z,97137.19
2017-11-28T21:46:10.242Z,97133.51
2017-11-28T21:48:37.756Z,97132.99
2017-11-28T21:51:05.253Z,97128.36
2017-11-28T21:53:32.744Z,97127.66
2017-11-28T21:56:00.305Z,97136.16
2017-11-28T21:58:27.830Z,97131.16
2017-11-28T22:00:55.324Z,97126.22
2017-11-28T22:03:22.824Z,97118.12
2017-11-28T22:05:50.354Z,97124.31
2017-11-28T22:08:17.873Z,97122.34
2017-11-28T22:10:45.384Z,97114.78
2017-11-28T22:13:12.898Z,97116.43
2017-11-28T22:15:41.163Z,97102.29
2017-11-28T22:18:08.742Z,97114.30
2017-11-28T22:20:36.269Z,97114.39
2017-11-28T22:23:03.784Z,97119.20
2017-11-28T22:25:31.283Z,97119.70
2017-11-28T22:27:58.794Z,97119.47
2017-11-28T22:30:26.304Z,97121.47
2017-11-28T22:32:53.802Z,97123.78
2017-11-28T22:35:21.290Z,97119.47
2017-11-28T22:37:48.807Z,97123.02
2017-11-28T22:40:16.306Z,97128.77
2017-11-28T22:42:43.794Z,97121.66
2017-11-28T22:45:11.324Z,97119.81
2017-11-28T22:47:38.818Z,97122.38
2017-11-28T22:50:06.325Z,97123.56
2017-11-28T22:52:33.814Z,97126.80
2017-11-28T22:55:01.324Z,97115.25
2017-11-28T22:57:28.864Z,97107.06
2017-11-28T22:59:56.355Z,97108.41
2017-11-28T23:02:23.859Z,97097.63
2017-11-28T23:04:51.358Z,97105.49
2017-11-28T23:07:18.879Z,97104.39
2017-11-28T23:09:46.403Z,97097.55
2017-11-28T23:12:14.033Z,97106.48
2017-11-28T23:14:48.398Z,97107.58
2017-11-28T23:17:15.899Z,97115.95
2017-11-28T23:19:43.411Z,97104.50
2017-11-28T23:22:10.906Z,97114.85
2017-11-28T23:24:38.398Z,97116.05
2017-11-28T23:27:05.945Z,97115.39
2017-11-28T23:29:33.438Z,97118.02
2017-11-28T23:32:00.941Z,97109.06
2017-11-28T23:34:28.453Z,97112.17
2017-11-28T23:36:56.002Z,97111.96
2017-11-28T23:39:23.466Z,97111.09
2017-11-28T23:41:50.971Z,97107.34
2017-11-28T23:44:18.462Z,97105.16
2017-11-28T23:46:45.966Z,97105.61
2017-11-28T23:49:13.469Z,97107.53
2017-11-28T23:51:40.978Z,97106.30
2017-11-28T23:54:08.586Z,97107.36
2017-11-28T23:56:36.118Z,97104.08
2017-11-28T23:59:03.635Z,97103.39
